createdAt,value
2023-01-17T07:05:20.699Z,972.58
2023-01-17T07:06:22.721Z,972.60
2023-01-17T07:07:24.774Z,972.62
2023-01-17T07:08:26.779Z,972.57
2023-01-17T07:09:28.786Z,972.65
2023-01-17T07:10:30.788Z,972.72
2023-01-17T07:11:32.792Z,972.73
2023-01-17T07:12:34.817Z,972.69
2023-01-17T07:13:36.823Z,972.71
2023-01-17T07:14:38.822Z,972.74
2023-01-17T07:15:40.862Z,972.74
2023-01-17T07:16:42.842Z,972.74
2023-01-17T07:17:44.856Z,972.81
2023-01-17T07:18:46.890Z,972.76
2023-01-17T07:19:48.910Z,972.69
2023-01-17T07:20:50.936Z,972.73
2023-01-17T07:21:52.971Z,972.67
2023-01-17T07:22:54.987Z,972.73
2023-01-17T07:23:56.998Z,972.76
2023-01-17T07:24:59.016Z,972.83
2023-01-17T07:26:01.015Z,972.80
2023-01-17T07:27:03.049Z,972.85
2023-01-17T07:28:05.072Z,972.81
2023-01-17T07:29:07.071Z,972.89
2023-01-17T07:30:09.108Z,972.90
2023-01-17T07:31:11.236Z,972.94
2023-01-17T07:32:13.278Z,972.88
2023-01-17T07:33:15.291Z,972.93
2023-01-17T07:34:17.311Z,972.96
2023-01-17T07:35:19.319Z,972.91
2023-01-17T07:36:21.314Z,972.94
2023-01-17T07:37:23.327Z,973.01
2023-01-17T07:38:25.328Z,973.04
2023-01-17T07:39:27.331Z,973.05
2023-01-17T07:40:29.402Z,973.06
2023-01-17T07:41:31.414Z,973.08
2023-01-17T07:42:33.435Z,973.04
2023-01-17T07:43:35.483Z,973.06
2023-01-17T07:44:38.959Z,973.04
2023-01-17T07:45:39.195Z,973.09
2023-01-17T07:46:41.235Z,973.12
2023-01-17T07:47:43.300Z,973.12
2023-01-17T07:48:45.319Z,973.15
2023-01-17T07:49:47.336Z,973.13
2023-01-17T07:50:49.356Z,973.10
2023-01-17T07:51:51.376Z,973.13
2023-01-17T07:52:53.403Z,973.16
2023-01-17T07:53:55.440Z,973.18
2023-01-17T07:54:57.456Z,973.18
2023-01-17T07:55:59.484Z,973.23
2023-01-17T07:57:01.500Z,973.27
2023-01-17T07:58:03.537Z,973.29
2023-01-17T07:59:05.557Z,973.27
2023-01-17T08:00:07.594Z,973.29
2023-01-17T08:01:09.714Z,973.27
2023-01-17T08:02:11.733Z,973.26
2023-01-17T08:03:13.730Z,973.29
2023-01-17T08:04:15.811Z,973.25
2023-01-17T08:05:17.818Z,973.29
2023-01-17T08:06:19.860Z,973.30
2023-01-17T08:07:21.881Z,973.30
2023-01-17T08:08:23.873Z,973.27
2023-01-17T08:09:25.870Z,973.34
2023-01-17T08:10:27.876Z,973.22
2023-01-17T08:11:29.906Z,973.34
2023-01-17T08:12:31.934Z,973.26
2023-01-17T08:13:33.938Z,973.26
2023-01-17T08:14:35.965Z,973.25
2023-01-17T08:15:37.986Z,973.37
2023-01-17T08:16:40.083Z,973.37
2023-01-17T08:17:42.109Z,973.27
2023-01-17T08:18:44.119Z,973.30
2023-01-17T08:19:46.147Z,973.34
2023-01-17T08:20:48.157Z,973.36
2023-01-17T08:21:50.155Z,973.36
2023-01-17T08:22:52.155Z,973.42
2023-01-17T08:23:54.160Z,973.41
2023-01-17T08:24:56.226Z,973.45
2023-01-17T08:25:58.251Z,973.50
2023-01-17T08:27:00.272Z,973.48
2023-01-17T08:28:02.296Z,973.51
2023-01-17T08:29:04.335Z,973.50
2023-01-17T08:30:06.330Z,973.56
2023-01-17T08:31:08.358Z,973.59
2023-01-17T08:32:10.378Z,973.70
2023-01-17T08:33:12.432Z,973.66
2023-01-17T08:34:14.449Z,973.65
2023-01-17T08:35:16.464Z,973.68
2023-01-17T08:36:18.484Z,973.68
2023-01-17T08:37:20.515Z,973.74
2023-01-17T08:38:22.523Z,973.78
2023-01-17T08:39:24.547Z,973.77
2023-01-17T08:40:26.559Z,973.78
2023-01-17T08:41:28.575Z,973.61
2023-01-17T08:42:30.579Z,973.75
2023-01-17T08:43:32.597Z,973.73
2023-01-17T08:44:34.583Z,973.74
2023-01-17T08:45:36.656Z,973.80
2023-01-17T08:46:38.668Z,973.74
2023-01-17T08:47:40.695Z,973.76
2023-01-17T08:48:42.716Z,973.73
2023-01-17T08:49:44.788Z,973.76
2023-01-17T08:50:46.798Z,973.81
2023-01-17T08:51:49.614Z,973.73
2023-01-17T08:52:50.531Z,973.76
2023-01-17T08:53:52.516Z,973.84
2023-01-17T08:54:54.537Z,973.86
2023-01-17T08:55:56.552Z,973.96
2023-01-17T08:56:58.620Z,973.85
2023-01-17T08:58:00.671Z,973.83
2023-01-17T08:59:02.712Z,973.98
2023-01-17T09:00:04.752Z,974.04
2023-01-17T09:01:06.937Z,974.05
2023-01-17T09:02:08.051Z,974.07
2023-01-17T09:03:08.993Z,974.11
2023-01-17T09:04:11.049Z,974.15
2023-01-17T09:05:13.053Z,974.14
2023-01-17T09:06:15.055Z,974.20
2023-01-17T09:07:17.078Z,974.25
2023-01-17T09:08:19.100Z,974.20
2023-01-17T09:09:21.135Z,974.26
2023-01-17T09:10:23.136Z,974.33
2023-01-17T09:11:25.170Z,974.36
2023-01-17T09:12:27.174Z,974.33
2023-01-17T09:13:29.196Z,974.40
2023-01-17T09:14:31.277Z,974.39
2023-01-17T09:15:33.303Z,974.42
2023-01-17T09:16:35.437Z,974.39
2023-01-17T09:17:37.433Z,974.42
2023-01-17T09:18:39.468Z,974.47
2023-01-17T09:19:50.884Z,974.52
2023-01-17T09:20:42.978Z,974.44
2023-01-17T09:21:45.020Z,974.46
2023-01-17T09:22:47.070Z,974.43
2023-01-17T09:23:49.107Z,974.40
2023-01-17T09:24:51.106Z,974.43
2023-01-17T09:25:53.127Z,974.49
2023-01-17T09:26:55.163Z,974.46
2023-01-17T09:27:57.168Z,974.43
2023-01-17T09:28:59.172Z,974.53
2023-01-17T09:30:01.195Z,974.53
2023-01-17T09:31:03.252Z,974.58
2023-01-17T09:32:05.254Z,974.58
2023-01-17T09:33:07.256Z,974.58
2023-01-17T09:34:09.281Z,974.48
2023-01-17T09:35:11.284Z,974.63
2023-01-17T09:36:13.296Z,974.56
2023-01-17T09:37:15.312Z,974.62
2023-01-17T09:38:17.335Z,974.65
2023-01-17T09:39:19.366Z,974.57
2023-01-17T09:40:21.395Z,974.65
2023-01-17T09:41:23.404Z,974.60
2023-01-17T09:42:25.409Z,974.61
2023-01-17T09:43:27.430Z,974.59
2023-01-17T09:44:29.466Z,974.67
2023-01-17T09:45:31.464Z,974.65
2023-01-17T09:46:33.462Z,974.60
2023-01-17T09:47:35.574Z,974.66
2023-01-17T09:48:37.559Z,974.65
2023-01-17T09:49:39.601Z,974.64
2023-01-17T09:50:41.611Z,974.55
2023-01-17T09:51:43.630Z,974.58
2023-01-17T09:52:45.689Z,974.55
2023-01-17T09:53:47.709Z,974.56
2023-01-17T09:54:49.745Z,974.60
2023-01-17T09:55:51.746Z,974.65
2023-01-17T09:56:53.755Z,974.65
2023-01-17T09:57:55.767Z,974.66
2023-01-17T09:58:57.784Z,974.73
2023-01-17T10:00:03.603Z,974.77
2023-01-17T10:01:01.663Z,974.78
2023-01-17T10:02:03.813Z,974.77
2023-01-17T10:03:04.874Z,974.83
2023-01-17T10:04:06.984Z,974.81
2023-01-17T10:05:09.030Z,974.79
2023-01-17T10:06:11.014Z,974.75
2023-01-17T10:07:13.006Z,974.81
2023-01-17T10:08:15.066Z,974.82
2023-01-17T10:09:17.077Z,974.80
2023-01-17T10:10:19.113Z,974.82
2023-01-17T10:11:21.103Z,974.87
2023-01-17T10:12:23.108Z,974.82
2023-01-17T10:13:25.129Z,974.83
2023-01-17T10:14:27.145Z,974.82
2023-01-17T10:15:29.168Z,974.80
2023-01-17T10:16:31.239Z,974.78
2023-01-17T10:17:33.225Z,974.76
2023-01-17T10:18:35.263Z,974.71
2023-01-17T10:19:37.277Z,974.75
2023-01-17T10:20:39.283Z,974.74
2023-01-17T10:21:41.307Z,974.77
2023-01-17T10:22:43.336Z,974.74
2023-01-17T10:23:45.324Z,974.70
2023-01-17T10:24:47.343Z,974.65
2023-01-17T10:25:49.341Z,974.70
2023-01-17T10:26:51.384Z,974.65
2023-01-17T10:27:53.391Z,974.70
2023-01-17T10:28:55.418Z,974.70
2023-01-17T10:29:57.421Z,974.59
2023-01-17T10:30:59.521Z,974.62
2023-01-17T10:32:01.525Z,974.63
2023-01-17T10:33:03.548Z,974.66
2023-01-17T10:34:05.575Z,974.60
2023-01-17T10:35:07.589Z,974.63
2023-01-17T10:36:09.611Z,974.66
2023-01-17T10:37:11.635Z,974.67
2023-01-17T10:38:13.642Z,974.67
2023-01-17T10:39:15.686Z,974.70
2023-01-17T10:40:17.710Z,974.72
2023-01-17T10:41:19.731Z,974.71
2023-01-17T10:42:21.746Z,974.75
2023-01-17T10:43:23.742Z,974.76
2023-01-17T10:44:25.798Z,974.77
2023-01-17T10:45:27.831Z,974.82
2023-01-17T10:46:29.908Z,974.79
2023-01-17T10:47:31.892Z,974.83
2023-01-17T10:48:33.897Z,974.71
2023-01-17T10:49:35.968Z,974.68
2023-01-17T10:50:38.000Z,974.63
2023-01-17T10:51:40.025Z,974.68
2023-01-17T10:52:42.086Z,974.58
2023-01-17T10:53:44.136Z,974.57
2023-01-17T10:54:46.209Z,974.57
2023-01-17T10:55:48.214Z,974.65
2023-01-17T10:56:50.213Z,974.63
2023-01-17T10:57:52.251Z,974.55
2023-01-17T10:58:54.259Z,974.54
2023-01-17T10:59:56.281Z,974.56
2023-01-17T11:00:58.302Z,974.58
2023-01-17T11:02:00.410Z,974.63
2023-01-17T11:03:02.563Z,974.65
2023-01-17T11:04:04.573Z,974.63
2023-01-17T11:05:06.638Z,974.63
2023-01-17T11:06:08.713Z,974.68
2023-01-17T11:07:10.739Z,974.64
2023-01-17T11:08:12.820Z,974.67
2023-01-17T11:09:14.891Z,974.70
2023-01-17T11:10:16.963Z,974.73
2023-01-17T11:11:19.013Z,974.69
2023-01-17T11:12:21.060Z,974.71
2023-01-17T11:13:23.101Z,974.73
2023-01-17T11:14:25.110Z,974.69
2023-01-17T11:15:27.234Z,974.79
2023-01-17T11:16:29.247Z,974.68
2023-01-17T11:17:31.344Z,974.65
2023-01-17T11:18:33.405Z,974.60
2023-01-17T11:19:35.448Z,974.65
2023-01-17T11:20:37.482Z,974.66
2023-01-17T11:21:39.544Z,974.58
2023-01-17T11:22:41.549Z,974.61
2023-01-17T11:23:43.568Z,974.55
2023-01-17T11:24:45.612Z,974.55
2023-01-17T11:25:47.703Z,974.60
2023-01-17T11:26:49.784Z,974.61
2023-01-17T11:27:51.763Z,974.56
2023-01-17T11:28:53.788Z,974.53
2023-01-17T11:29:55.825Z,974.57
2023-01-17T11:30:57.885Z,974.61
2023-01-17T11:31:59.889Z,974.56
2023-01-17T11:33:01.901Z,974.56
2023-01-17T11:34:03.908Z,974.52
2023-01-17T11:35:05.941Z,974.46
2023-01-17T11:36:07.981Z,974.50
2023-01-17T11:37:09.993Z,974.44
2023-01-17T11:38:12.040Z,974.44
2023-01-17T11:39:14.047Z,974.40
2023-01-17T11:40:16.108Z,974.40
2023-01-17T11:41:18.143Z,974.40
2023-01-17T11:42:20.159Z,974.36
2023-01-17T11:43:22.196Z,974.43
2023-01-17T11:44:24.281Z,974.43
2023-01-17T11:45:26.284Z,974.41
2023-01-17T11:46:28.453Z,974.47
2023-01-17T11:47:30.480Z,974.45
2023-01-17T11:48:32.482Z,974.48
2023-01-17T11:49:34.511Z,974.47
2023-01-17T11:50:36.533Z,974.51
2023-01-17T11:51:38.575Z,974.54
2023-01-17T11:52:40.601Z,974.54
2023-01-17T11:53:42.628Z,974.52
2023-01-17T11:54:44.629Z,974.54
2023-01-17T11:55:46.640Z,974.47
2023-01-17T11:56:48.647Z,974.51
2023-01-17T11:57:50.767Z,974.53
2023-01-17T11:58:52.752Z,974.52
2023-01-17T11:59:54.773Z,974.56
2023-01-17T12:00:56.794Z,974.59
2023-01-17T12:01:58.786Z,974.65
2023-01-17T12:03:00.793Z,974.65
2023-01-17T12:04:02.886Z,974.66
2023-01-17T12:05:04.923Z,974.62
2023-01-17T12:06:06.923Z,974.63
2023-01-17T12:07:09.013Z,974.62
2023-01-17T12:08:11.013Z,974.60
2023-01-17T12:09:13.004Z,974.65
2023-01-17T12:10:15.068Z,974.64
2023-01-17T12:11:17.112Z,974.58
2023-01-17T12:12:19.093Z,974.61
2023-01-17T12:13:21.095Z,974.63
2023-01-17T12:14:23.107Z,974.62
2023-01-17T12:15:25.140Z,974.62
2023-01-17T12:16:27.152Z,974.60
2023-01-17T12:17:29.165Z,974.66
2023-01-17T12:18:31.175Z,974.65
2023-01-17T12:19:33.188Z,974.72
2023-01-17T12:20:35.214Z,974.73
2023-01-17T12:21:37.227Z,974.73
2023-01-17T12:22:39.233Z,974.73
2023-01-17T12:23:41.255Z,974.70
2023-01-17T12:24:43.259Z,974.69
2023-01-17T12:25:45.272Z,974.77
2023-01-17T12:26:47.295Z,974.79
2023-01-17T12:27:49.299Z,974.77
2023-01-17T12:28:51.369Z,974.81
2023-01-17T12:29:53.395Z,974.90
2023-01-17T12:30:55.430Z,974.90
2023-01-17T12:31:57.420Z,974.92
2023-01-17T12:32:59.449Z,974.92
2023-01-17T12:34:01.489Z,974.93
2023-01-17T12:35:03.556Z,974.98
2023-01-17T12:36:05.565Z,974.98
2023-01-17T12:37:07.570Z,975.00
2023-01-17T12:38:11.414Z,974.95
2023-01-17T12:39:11.856Z,974.96
2023-01-17T12:40:13.982Z,975.04
2023-01-17T12:41:15.995Z,975.04
2023-01-17T12:42:17.988Z,975.02
2023-01-17T12:43:20.019Z,975.01
2023-01-17T12:44:22.076Z,975.03
2023-01-17T12:45:24.067Z,975.04
2023-01-17T12:46:26.090Z,975.05
2023-01-17T12:47:28.099Z,975.04
2023-01-17T12:48:30.152Z,975.08
2023-01-17T12:49:32.181Z,975.12
2023-01-17T12:50:34.191Z,975.10
2023-01-17T12:51:36.213Z,975.11
2023-01-17T12:52:38.213Z,975.12
2023-01-17T12:53:40.253Z,975.10
2023-01-17T12:54:42.274Z,975.07
2023-01-17T12:55:44.285Z,975.09
2023-01-17T12:56:46.297Z,975.13
2023-01-17T12:57:48.315Z,975.09
2023-01-17T12:58:50.347Z,975.11
2023-01-17T12:59:52.367Z,975.17
2023-01-17T13:00:54.511Z,975.17
2023-01-17T13:01:56.728Z,975.15
2023-01-17T13:02:57.696Z,975.16
2023-01-17T13:03:59.730Z,975.13
2023-01-17T13:05:01.731Z,975.13
2023-01-17T13:06:03.731Z,975.18
2023-01-17T13:07:05.752Z,975.20
2023-01-17T13:08:07.764Z,975.18
2023-01-17T13:09:09.766Z,975.21
2023-01-17T13:10:11.936Z,975.16
2023-01-17T13:11:13.956Z,975.20
2023-01-17T13:12:16.008Z,975.22
2023-01-17T13:13:18.032Z,975.24
2023-01-17T13:14:20.157Z,975.19
2023-01-17T13:15:22.175Z,975.21
2023-01-17T13:16:24.265Z,975.20
2023-01-17T13:17:26.247Z,975.19
2023-01-17T13:18:28.270Z,975.22
2023-01-17T13:19:30.283Z,975.28
2023-01-17T13:20:32.291Z,975.29
2023-01-17T13:21:34.312Z,975.23
2023-01-17T13:22:36.338Z,975.25
2023-01-17T13:23:38.352Z,975.28
2023-01-17T13:24:40.368Z,975.28
2023-01-17T13:25:42.394Z,975.27
2023-01-17T13:26:44.409Z,975.33
2023-01-17T13:27:46.414Z,975.31
2023-01-17T13:28:48.458Z,975.31
2023-01-17T13:29:50.468Z,975.28
2023-01-17T13:30:52.489Z,975.30
2023-01-17T13:31:54.516Z,975.35
2023-01-17T13:32:56.523Z,975.34
2023-01-17T13:33:58.556Z,975.38
2023-01-17T13:35:01.747Z,975.38
2023-01-17T13:36:02.709Z,975.38
2023-01-17T13:37:04.742Z,975.36
2023-01-17T13:38:06.783Z,975.38
2023-01-17T13:39:08.787Z,975.36
2023-01-17T13:40:10.799Z,975.39
2023-01-17T13:41:12.805Z,975.37
2023-01-17T13:42:14.865Z,975.36
2023-01-17T13:43:16.885Z,975.42
2023-01-17T13:44:18.884Z,975.41
2023-01-17T13:45:21.005Z,975.39
2023-01-17T13:46:22.993Z,975.38
2023-01-17T13:47:24.987Z,975.43
2023-01-17T13:48:27.008Z,975.45
2023-01-17T13:49:29.066Z,975.47
2023-01-17T13:50:31.066Z,975.49
2023-01-17T13:51:33.091Z,975.49
2023-01-17T13:52:35.097Z,975.49
2023-01-17T13:53:37.174Z,975.49
2023-01-17T13:54:39.138Z,975.42
2023-01-17T13:55:41.202Z,975.45
2023-01-17T13:56:43.212Z,975.49
2023-01-17T13:57:45.199Z,975.47
2023-01-17T13:58:47.255Z,975.46
2023-01-17T13:59:49.237Z,975.52
2023-01-17T14:00:51.400Z,975.50
2023-01-17T14:01:53.565Z,975.52
2023-01-17T14:02:55.773Z,975.49
2023-01-17T14:03:56.677Z,975.52
2023-01-17T14:04:59.618Z,975.50
2023-01-17T14:06:00.581Z,975.51
2023-01-17T14:07:02.596Z,975.54
2023-01-17T14:08:04.618Z,975.53
2023-01-17T14:09:06.618Z,975.54
2023-01-17T14:10:08.620Z,975.55
2023-01-17T14:11:10.633Z,975.49
2023-01-17T14:12:12.652Z,975.54
2023-01-17T14:13:14.676Z,975.62
2023-01-17T14:14:16.698Z,975.61
2023-01-17T14:15:18.736Z,975.57
2023-01-17T14:16:20.800Z,975.56
2023-01-17T14:17:22.762Z,975.59
2023-01-17T14:18:24.780Z,975.59
2023-01-17T14:19:26.791Z,975.61
2023-01-17T14:20:28.827Z,975.60
2023-01-17T14:21:30.872Z,975.60
2023-01-17T14:22:42.835Z,975.57
2023-01-17T14:23:34.933Z,975.60
2023-01-17T14:24:36.956Z,975.62
2023-01-17T14:25:38.986Z,975.68
2023-01-17T14:26:41.008Z,975.67
2023-01-17T14:27:43.015Z,975.71
2023-01-17T14:28:45.048Z,975.68
2023-01-17T14:29:47.058Z,975.67
2023-01-17T14:30:49.074Z,975.71
2023-01-17T14:31:51.142Z,975.68
2023-01-17T14:32:53.107Z,975.70
2023-01-17T14:33:55.155Z,975.65
2023-01-17T14:34:57.184Z,975.72
2023-01-17T14:35:59.202Z,975.73
2023-01-17T14:37:01.207Z,975.77
2023-01-17T14:38:03.243Z,975.76
2023-01-17T14:39:05.241Z,975.74
2023-01-17T14:40:07.260Z,975.82
2023-01-17T14:41:09.274Z,975.80
2023-01-17T14:42:11.341Z,975.80
2023-01-17T14:43:13.312Z,975.85
2023-01-17T14:44:15.312Z,975.84
2023-01-17T14:45:17.327Z,975.86
2023-01-17T14:46:19.333Z,975.85
2023-01-17T14:47:21.364Z,975.81
2023-01-17T14:48:23.395Z,975.84
2023-01-17T14:49:25.401Z,975.84
2023-01-17T14:50:27.423Z,975.83
2023-01-17T14:51:29.433Z,975.82
2023-01-17T14:52:31.469Z,975.89
2023-01-17T14:53:33.485Z,975.86
2023-01-17T14:54:35.507Z,975.86
2023-01-17T14:55:37.535Z,975.85
2023-01-17T14:56:39.554Z,975.86
2023-01-17T14:57:41.614Z,975.86
2023-01-17T14:58:43.618Z,975.85
2023-01-17T14:59:45.619Z,975.85
2023-01-17T15:00:47.737Z,975.83
2023-01-17T15:02:05.740Z,975.84
2023-01-17T15:02:51.311Z,975.79
2023-01-17T15:03:53.437Z,975.85
2023-01-17T15:04:55.468Z,975.86
2023-01-17T15:05:57.496Z,975.84
2023-01-17T15:06:59.521Z,975.82
2023-01-17T15:08:01.566Z,975.84
2023-01-17T15:09:03.612Z,975.86
2023-01-17T15:10:05.621Z,975.92
2023-01-17T15:11:07.639Z,975.94
2023-01-17T15:12:09.664Z,975.86
2023-01-17T15:13:11.696Z,975.91
2023-01-17T15:14:13.701Z,975.90
2023-01-17T15:15:15.708Z,975.87
2023-01-17T15:16:17.755Z,975.85
2023-01-17T15:17:19.730Z,975.88
2023-01-17T15:18:21.772Z,975.89
2023-01-17T15:19:23.792Z,975.89
2023-01-17T15:20:25.791Z,975.87
2023-01-17T15:21:27.825Z,975.86
2023-01-17T15:22:29.904Z,975.85
2023-01-17T15:23:31.910Z,975.88
2023-01-17T15:24:33.923Z,975.86
2023-01-17T15:25:35.949Z,975.83
2023-01-17T15:26:37.966Z,975.87
2023-01-17T15:27:40.004Z,975.81
2023-01-17T15:28:42.048Z,975.83
2023-01-17T15:29:44.043Z,975.83
2023-01-17T15:30:46.152Z,975.86
2023-01-17T15:31:48.132Z,975.88
2023-01-17T15:32:50.159Z,975.90
2023-01-17T15:33:52.164Z,975.89
2023-01-17T15:34:54.191Z,975.89
2023-01-17T15:35:56.218Z,975.91
2023-01-17T15:36:58.221Z,975.90
